Time;durP1;ratioP1;P1;durP2;ratioP2;P2;SDS_P1;SDS_P2;PMS_P1;PMS_P2;Temp;Humidity;BMP_temperature;BMP_pressure;BME280_temperature;BME280_humidity;BME280_pressure;Samples;Min_cycle;Max_cycle;Signal;HPM_P1;HPM_P2
2021/06/22 00:00:58;;;;;;;;;;;22.10;71.00;;;;;;5055652;28;1275;-74
2021/06/22 00:03:23;;;;;;;;;;;22.10;71.00;;;;;;5054125;28;1147;-73
2021/06/22 00:05:49;;;;;;;;;;;22.10;71.00;;;;;;5055500;28;1973;-73
2021/06/22 00:08:14;;;;;;;;;;;22.10;71.00;;;;;;5055779;28;1153;-74
2021/06/22 00:10:40;;;;;;;;;;;22.10;71.00;;;;;;5055046;28;1358;-73
2021/06/22 00:13:06;;;;;;;;;;;22.10;71.00;;;;;;5055332;28;1138;-73
2021/06/22 00:15:31;;;;;;;;;;;22.10;71.00;;;;;;5055052;28;1087;-74
2021/06/22 00:17:56;;;;;;;;;;;22.10;71.00;;;;;;5055710;28;1122;-73
2021/06/22 00:20:23;;;;;;;;;;;22.10;71.00;;;;;;5054308;28;1260;-73
2021/06/22 00:22:48;;;;;;;;;;;22.10;70.90;;;;;;5055051;28;1047;-74
2021/06/22 00:25:14;;;;;;;;;;;22.10;70.90;;;;;;5054994;28;1963;-74
2021/06/22 00:27:40;;;;;;;;;;;22.10;70.90;;;;;;5037077;28;1409;-73
2021/06/22 00:30:06;;;;;;;;;;;22.10;71.00;;;;;;5053935;28;1127;-74
2021/06/22 00:32:31;;;;;;;;;;;22.10;70.90;;;;;;5054882;28;1208;-74
2021/06/22 00:34:57;;;;;;;;;;;22.10;70.90;;;;;;5055349;28;1157;-73
2021/06/22 00:37:22;;;;;;;;;;;22.10;70.90;;;;;;5055222;28;1165;-74
2021/06/22 00:39:47;;;;;;;;;;;22.10;70.90;;;;;;5054343;28;1130;-73
2021/06/22 00:42:13;;;;;;;;;;;22.10;70.90;;;;;;5046785;28;1381;-73
2021/06/22 00:44:48;;;;;;;;;;;22.10;70.90;;;;;;5046898;28;1902;-73
2021/06/22 00:47:14;;;;;;;;;;;22.10;71.00;;;;;;5046230;28;1208;-72
2021/06/22 00:49:40;;;;;;;;;;;22.10;70.90;;;;;;5046193;28;1291;-73
2021/06/22 00:52:05;;;;;;;;;;;22.10;70.90;;;;;;5049124;28;1279;-74
2021/06/22 00:54:31;;;;;;;;;;;22.10;71.00;;;;;;5045897;28;1272;-73
2021/06/22 00:56:56;;;;;;;;;;;22.10;70.90;;;;;;5030470;28;1296;-75
2021/06/22 00:59:21;;;;;;;;;;;22.10;70.90;;;;;;5030368;28;1299;-75
2021/06/22 01:01:47;;;;;;;;;;;22.10;70.90;;;;;;5026573;28;1332;-76
2021/06/22 01:04:12;;;;;;;;;;;22.10;70.90;;;;;;5028569;28;1907;-76
2021/06/22 01:06:38;;;;;;;;;;;22.10;70.90;;;;;;5036512;28;1146;-75
2021/06/22 01:09:04;;;;;;;;;;;22.10;70.90;;;;;;5039624;28;1392;-76
2021/06/22 01:11:30;;;;;;;;;;;22.10;70.90;;;;;;5055594;28;1275;-75
2021/06/22 01:13:55;;;;;;;;;;;22.10;70.90;;;;;;5036513;28;1123;-74
2021/06/22 01:16:21;;;;;;;;;;;22.10;70.90;;;;;;5033023;28;1294;-75
2021/06/22 01:18:47;;;;;;;;;;;22.10;70.90;;;;;;5030558;28;1173;-75
2021/06/22 01:21:13;;;;;;;;;;;22.10;70.90;;;;;;5036213;28;1378;-75
2021/06/22 01:23:38;;;;;;;;;;;22.10;70.90;;;;;;5036316;28;1898;-76
2021/06/22 01:26:04;;;;;;;;;;;22.10;70.90;;;;;;5054269;28;1081;-75
2021/06/22 01:28:29;;;;;;;;;;;22.10;70.90;;;;;;5056598;28;879;-76
2021/06/22 01:30:54;;;;;;;;;;;22.10;70.90;;;;;;5040083;28;1359;-76
2021/06/22 01:33:20;;;;;;;;;;;22.10;70.90;;;;;;5036780;28;1064;-75
2021/06/22 01:35:45;;;;;;;;;;;22.10;70.90;;;;;;5041158;28;967;-75
2021/06/22 01:38:11;;;;;;;;;;;22.10;70.90;;;;;;5036555;28;1111;-73
2021/06/22 01:40:43;;;;;;;;;;;22.10;70.90;;;;;;5040136;28;1299;-74
2021/06/22 01:43:08;;;;;;;;;;;22.10;70.90;;;;;;5038774;28;1466;-73
2021/06/22 01:45:34;;;;;;;;;;;22.10;70.90;;;;;;5054232;28;1894;-73
2021/06/22 01:48:00;;;;;;;;;;;22.10;70.90;;;;;;5026990;28;1161;-72
2021/06/22 01:50:25;;;;;;;;;;;22.10;70.90;;;;;;5052083;28;1377;-72
2021/06/22 01:52:51;;;;;;;;;;;22.10;70.90;;;;;;5049115;22;1979;-65
2021/06/22 01:55:36;;;;;;;;;;;22.10;71.70;;;;;;5018903;28;1474;-65
2021/06/22 01:58:03;;;;;;;;;;;22.10;70.90;;;;;;5049276;28;1647;-65
2021/06/22 02:00:28;;;;;;;;;;;22.10;70.90;;;;;;5032970;28;1369;-65
2021/06/22 02:02:54;;;;;;;;;;;22.10;70.90;;;;;;5032834;28;1474;-65
2021/06/22 02:05:19;;;;;;;;;;;22.10;70.90;;;;;;5031439;28;1903;-64
2021/06/22 02:07:45;;;;;;;;;;;22.10;70.90;;;;;;5033290;28;1656;-66
2021/06/22 02:10:10;;;;;;;;;;;22.10;70.90;;;;;;5033189;28;1691;-64
2021/06/22 02:12:36;;;;;;;;;;;22.10;70.90;;;;;;5031649;28;1385;-65
2021/06/22 02:15:02;;;;;;;;;;;22.10;70.90;;;;;;5023963;28;1388;-64
2021/06/22 02:17:27;;;;;;;;;;;22.10;70.90;;;;;;5025884;28;1401;-66
2021/06/22 02:19:53;;;;;;;;;;;22.10;70.90;;;;;;5031041;28;1630;-66
2021/06/22 02:22:18;;;;;;;;;;;22.10;70.90;;;;;;5032317;28;1546;-65
2021/06/22 02:24:43;;;;;;;;;;;22.10;70.90;;;;;;5031721;28;1894;-66
2021/06/22 02:27:09;;;;;;;;;;;22.10;70.90;;;;;;5032391;28;1060;-65
2021/06/22 02:29:34;;;;;;;;;;;22.10;70.90;;;;;;5031600;28;1711;-64
2021/06/22 02:32:00;;;;;;;;;;;22.10;70.90;;;;;;5032856;28;1361;-66
2021/06/22 02:34:25;;;;;;;;;;;22.10;70.90;;;;;;5032156;28;1546;-64
2021/06/22 02:36:51;;;;;;;;;;;22.10;70.90;;;;;;5032812;28;1649;-64
2021/06/22 02:39:16;;;;;;;;;;;22.10;70.90;;;;;;5032608;28;1265;-65
2021/06/22 02:41:42;;;;;;;;;;;22.10;70.90;;;;;;5032916;28;1866;-64
2021/06/22 02:44:07;;;;;;;;;;;22.10;70.90;;;;;;5032172;28;1963;-64
2021/06/22 02:46:33;;;;;;;;;;;22.10;70.90;;;;;;5031565;28;1386;-65
2021/06/22 02:48:58;;;;;;;;;;;22.10;70.90;;;;;;5032429;28;1371;-64
2021/06/22 02:51:23;;;;;;;;;;;22.10;70.90;;;;;;5032725;28;1654;-64
2021/06/22 02:53:49;;;;;;;;;;;22.10;70.90;;;;;;5032521;28;1742;-65
2021/06/22 02:56:14;;;;;;;;;;;22.10;70.90;;;;;;5032428;28;1385;-64
2021/06/22 02:58:40;;;;;;;;;;;22.10;70.90;;;;;;5021171;28;1429;-64
2021/06/22 03:01:05;;;;;;;;;;;22.10;70.90;;;;;;5014606;28;1381;-65
2021/06/22 03:03:30;;;;;;;;;;;22.10;70.90;;;;;;5032306;28;1366;-65
2021/06/22 03:05:56;;;;;;;;;;;22.10;70.90;;;;;;5032411;28;1906;-64
2021/06/22 03:08:21;;;;;;;;;;;22.10;70.90;;;;;;5031398;28;1397;-64
2021/06/22 03:10:47;;;;;;;;;;;22.10;70.90;;;;;;5033172;28;1464;-64
2021/06/22 03:13:12;;;;;;;;;;;22.10;70.90;;;;;;5035833;28;1365;-64
2021/06/22 03:15:38;;;;;;;;;;;22.10;70.90;;;;;;5023066;28;1166;-64
2021/06/22 03:18:03;;;;;;;;;;;22.10;70.90;;;;;;5033185;28;1829;-64
2021/06/22 03:20:28;;;;;;;;;;;22.10;70.90;;;;;;5036349;28;1707;-65
2021/06/22 03:22:54;;;;;;;;;;;22.10;70.90;;;;;;5035663;28;1713;-65
2021/06/22 03:25:20;;;;;;;;;;;22.10;70.90;;;;;;5036053;28;1899;-65
2021/06/22 03:27:45;;;;;;;;;;;22.10;70.90;;;;;;5036191;28;1714;-64
2021/06/22 03:30:11;;;;;;;;;;;22.10;70.90;;;;;;5035717;28;1681;-64
2021/06/22 03:32:37;;;;;;;;;;;22.10;70.90;;;;;;5034751;28;1508;-65
2021/06/22 03:35:03;;;;;;;;;;;22.10;70.90;;;;;;5034175;28;1699;-64
2021/06/22 03:37:29;;;;;;;;;;;22.10;70.90;;;;;;5035883;28;1531;-64
2021/06/22 03:39:54;;;;;;;;;;;22.10;70.90;;;;;;5035756;28;1460;-64
2021/06/22 03:42:19;;;;;;;;;;;22.10;70.90;;;;;;5035644;28;1261;-64
2021/06/22 03:44:45;;;;;;;;;;;22.10;70.90;;;;;;5035409;28;1890;-66
2021/06/22 03:47:11;;;;;;;;;;;22.10;70.90;;;;;;5034131;28;1459;-64
2021/06/22 03:49:36;;;;;;;;;;;22.10;70.90;;;;;;5034585;28;1368;-64
2021/06/22 03:52:01;;;;;;;;;;;22.10;70.90;;;;;;5035443;28;1709;-64
2021/06/22 03:54:27;;;;;;;;;;;22.10;70.90;;;;;;5035407;28;1348;-66
2021/06/22 03:56:52;;;;;;;;;;;22.10;70.90;;;;;;5034121;28;1667;-65
2021/06/22 03:59:18;;;;;;;;;;;22.10;70.90;;;;;;5035477;28;1181;-65
2021/06/22 04:01:43;;;;;;;;;;;22.10;70.90;;;;;;5035293;28;1605;-65
2021/06/22 04:04:09;;;;;;;;;;;22.10;70.90;;;;;;5034899;28;1955;-64
2021/06/22 04:06:34;;;;;;;;;;;22.10;70.90;;;;;;5035439;28;1445;-65
2021/06/22 04:09:00;;;;;;;;;;;22.10;70.90;;;;;;5035067;28;1670;-65
2021/06/22 04:11:25;;;;;;;;;;;22.10;70.90;;;;;;5035066;28;1535;-65
2021/06/22 04:13:51;;;;;;;;;;;22.10;70.90;;;;;;5034649;28;1340;-65
2021/06/22 04:16:16;;;;;;;;;;;22.10;70.90;;;;;;5033611;28;1280;-65
2021/06/22 04:18:41;;;;;;;;;;;22.10;70.90;;;;;;5033603;28;1403;-65
2021/06/22 04:21:07;;;;;;;;;;;22.10;70.90;;;;;;5033279;28;1647;-65
2021/06/22 04:23:32;;;;;;;;;;;22.10;70.90;;;;;;5034180;28;1662;-65
2021/06/22 04:25:58;;;;;;;;;;;22.10;70.90;;;;;;5034416;28;1964;-66
2021/06/22 04:28:23;;;;;;;;;;;22.10;70.90;;;;;;5034638;28;1354;-65
2021/06/22 04:30:49;;;;;;;;;;;22.10;70.90;;;;;;5034593;28;1412;-65
2021/06/22 04:33:14;;;;;;;;;;;22.10;70.90;;;;;;5034515;28;1204;-65
2021/06/22 04:35:40;;;;;;;;;;;22.10;71.00;;;;;;5034551;28;1457;-64
2021/06/22 04:38:06;;;;;;;;;;;22.10;70.90;;;;;;5034814;28;1396;-64
2021/06/22 04:40:31;;;;;;;;;;;22.10;70.90;;;;;;5033759;28;1715;-65
2021/06/22 04:42:57;;;;;;;;;;;22.10;70.90;;;;;;5034324;28;1409;-64
2021/06/22 04:45:22;;;;;;;;;;;22.10;70.90;;;;;;5033176;28;1899;-64
2021/06/22 04:47:47;;;;;;;;;;;22.10;70.90;;;;;;5034414;28;1576;-64
2021/06/22 04:50:13;;;;;;;;;;;22.10;70.90;;;;;;5033302;28;1660;-66
2021/06/22 04:52:38;;;;;;;;;;;22.10;71.00;;;;;;5034152;28;1710;-64
2021/06/22 04:55:12;;;;;;;;;;;22.10;70.90;;;;;;5034277;28;1583;-64
2021/06/22 04:57:38;;;;;;;;;;;22.10;70.90;;;;;;5034264;28;1444;-66
2021/06/22 05:00:04;;;;;;;;;;;22.10;70.90;;;;;;5034221;28;1473;-66
2021/06/22 05:02:29;;;;;;;;;;;22.10;70.90;;;;;;5032857;28;1384;-65
2021/06/22 05:04:55;;;;;;;;;;;22.10;70.90;;;;;;5033639;28;1906;-65
2021/06/22 05:07:20;;;;;;;;;;;22.10;70.90;;;;;;5033125;28;1679;-65
2021/06/22 05:09:46;;;;;;;;;;;22.10;70.90;;;;;;5034008;28;1688;-65
2021/06/22 05:12:11;;;;;;;;;;;22.10;70.90;;;;;;5033986;28;1189;-65
2021/06/22 05:14:36;;;;;;;;;;;22.10;70.90;;;;;;5032978;28;1853;-65
2021/06/22 05:17:02;;;;;;;;;;;22.10;70.90;;;;;;5032378;28;1036;-67
2021/06/22 05:19:27;;;;;;;;;;;22.10;70.90;;;;;;5034051;28;1661;-64
2021/06/22 05:21:53;;;;;;;;;;;22.10;70.90;;;;;;5033854;28;1441;-65
2021/06/22 05:24:18;;;;;;;;;;;22.10;70.90;;;;;;5033672;28;1902;-67
2021/06/22 05:26:44;;;;;;;;;;;22.10;70.90;;;;;;5033705;28;1684;-65
2021/06/22 05:29:11;;;;;;;;;;;22.10;70.90;;;;;;5033865;28;1367;-65
2021/06/22 05:31:36;;;;;;;;;;;22.10;70.90;;;;;;5033619;28;1341;-64
2021/06/22 05:34:05;;;;;;;;;;;22.10;70.90;;;;;;5031893;28;1664;-64
2021/06/22 05:36:30;;;;;;;;;;;22.10;70.90;;;;;;5033552;28;1574;-65
2021/06/22 05:38:56;;;;;;;;;;;22.10;70.90;;;;;;5033678;28;1678;-66
2021/06/22 05:41:21;;;;;;;;;;;22.10;70.90;;;;;;5033422;28;1487;-66
2021/06/22 05:43:47;;;;;;;;;;;22.10;70.90;;;;;;5032898;28;1898;-67
2021/06/22 05:46:12;;;;;;;;;;;22.10;70.90;;;;;;5033318;28;1673;-64
2021/06/22 05:48:37;;;;;;;;;;;22.10;70.90;;;;;;5033281;28;1213;-65
2021/06/22 05:51:03;;;;;;;;;;;22.10;70.90;;;;;;5033305;28;1554;-65
2021/06/22 05:53:28;;;;;;;;;;;22.10;70.90;;;;;;5031633;28;1725;-64
2021/06/22 05:55:54;;;;;;;;;;;22.10;70.90;;;;;;5033269;28;1399;-65
2021/06/22 05:58:19;;;;;;;;;;;22.10;70.90;;;;;;5033277;28;1389;-64
2021/06/22 06:00:44;;;;;;;;;;;22.10;70.90;;;;;;5032934;28;1010;-65
2021/06/22 06:03:10;;;;;;;;;;;22.10;70.80;;;;;;5031834;28;1480;-64
2021/06/22 06:05:35;;;;;;;;;;;22.10;70.80;;;;;;5018162;28;2203;-64
2021/06/22 06:08:01;;;;;;;;;;;22.10;70.80;;;;;;5040878;28;1434;-63
2021/06/22 06:10:26;;;;;;;;;;;22.10;70.70;;;;;;5047142;28;1502;-64
2021/06/22 06:12:52;;;;;;;;;;;22.10;70.70;;;;;;5038051;28;1221;-63
2021/06/22 06:15:17;;;;;;;;;;;22.10;70.80;;;;;;5032822;28;1656;-64
2021/06/22 06:17:43;;;;;;;;;;;22.10;70.80;;;;;;5031602;28;1290;-64
2021/06/22 06:20:09;;;;;;;;;;;22.10;70.80;;;;;;5033221;28;1667;-64
2021/06/22 06:22:35;;;;;;;;;;;22.10;70.80;;;;;;5032759;28;1430;-64
2021/06/22 06:25:03;;;;;;;;;;;22.10;70.80;;;;;;5032635;28;1879;-63
2021/06/22 06:30:16;;;;;;;;;;;22.10;70.80;;;;;;5033130;28;1356;-65
2021/06/22 06:32:42;;;;;;;;;;;22.10;70.80;;;;;;5032628;28;1624;-65
2021/06/22 06:35:08;;;;;;;;;;;22.10;70.80;;;;;;5031455;28;1610;-65
2021/06/22 06:37:33;;;;;;;;;;;22.10;70.80;;;;;;5033017;28;1674;-65
2021/06/22 06:39:59;;;;;;;;;;;22.10;70.80;;;;;;5031725;28;1573;-65
2021/06/22 06:42:24;;;;;;;;;;;22.10;70.80;;;;;;5031164;28;1371;-65
2021/06/22 06:44:50;;;;;;;;;;;22.10;70.80;;;;;;5032776;28;1961;-65
2021/06/22 06:47:16;;;;;;;;;;;22.10;70.80;;;;;;5035646;28;1494;-65
2021/06/22 06:49:41;;;;;;;;;;;22.10;70.80;;;;;;5036750;28;1394;-65
2021/06/22 06:52:07;;;;;;;;;;;22.10;70.80;;;;;;5036472;28;1705;-65
2021/06/22 06:54:32;;;;;;;;;;;22.10;70.80;;;;;;5035214;28;1623;-65
2021/06/22 06:56:58;;;;;;;;;;;22.10;70.80;;;;;;5036383;28;1682;-66
2021/06/22 06:59:23;;;;;;;;;;;22.10;70.80;;;;;;5036708;28;1170;-66
2021/06/22 07:01:49;;;;;;;;;;;22.10;70.80;;;;;;5035011;28;1445;-66
2021/06/22 07:04:14;;;;;;;;;;;22.10;70.80;;;;;;5036148;28;1910;-67
2021/06/22 07:06:39;;;;;;;;;;;22.10;70.80;;;;;;5036307;28;1447;-66
2021/06/22 07:09:05;;;;;;;;;;;22.10;70.70;;;;;;5035313;28;1399;-66
2021/06/22 07:11:31;;;;;;;;;;;22.10;70.80;;;;;;5034868;28;1603;-66
2021/06/22 07:13:56;;;;;;;;;;;22.10;70.80;;;;;;5036184;28;1346;-67
2021/06/22 07:16:22;;;;;;;;;;;22.10;70.80;;;;;;5022854;28;1450;-65
2021/06/22 07:18:47;;;;;;;;;;;22.10;70.80;;;;;;5036202;28;1639;-66
2021/06/22 07:21:13;;;;;;;;;;;22.10;70.80;;;;;;5034871;28;1561;-66
2021/06/22 07:23:39;;;;;;;;;;;22.10;70.80;;;;;;5035876;28;1178;-66
2021/06/22 07:26:04;;;;;;;;;;;22.10;70.80;;;;;;5035803;28;1890;-65
2021/06/22 07:28:29;;;;;;;;;;;22.10;70.80;;;;;;5036081;28;1642;-66
2021/06/22 07:30:55;;;;;;;;;;;22.10;70.80;;;;;;5035888;28;1416;-68
2021/06/22 07:33:20;;;;;;;;;;;22.10;70.80;;;;;;5035745;28;1356;-66
2021/06/22 07:35:46;;;;;;;;;;;22.10;70.80;;;;;;5035743;28;1709;-67
2021/06/22 07:38:11;;;;;;;;;;;22.10;70.80;;;;;;5035945;28;1447;-67
2021/06/22 07:40:37;;;;;;;;;;;22.10;70.80;;;;;;5035593;28;1374;-66
2021/06/22 07:43:03;;;;;;;;;;;22.10;70.80;;;;;;5034299;28;1679;-66
2021/06/22 07:45:28;;;;;;;;;;;22.10;70.80;;;;;;5034390;28;1954;-66
2021/06/22 07:47:55;;;;;;;;;;;22.10;70.80;;;;;;5035773;28;1611;-67
2021/06/22 07:50:21;;;;;;;;;;;22.10;70.80;;;;;;5034326;28;1760;-67
2021/06/22 07:52:46;;;;;;;;;;;22.10;70.80;;;;;;5059558;22;3798;-71
2021/06/22 07:55:15;;;;;;;;;;;22.10;70.80;;;;;;5027245;28;1630;-71
2021/06/22 07:57:41;;;;;;;;;;;22.10;70.80;;;;;;5046933;28;1177;-73
2021/06/22 08:00:10;;;;;;;;;;;22.10;70.80;;;;;;5051903;28;1455;-71
2021/06/22 08:02:35;;;;;;;;;;;22.10;70.90;;;;;;5055221;28;1416;-71
2021/06/22 08:05:01;;;;;;;;;;;22.10;70.80;;;;;;5055122;28;1910;-71
2021/06/22 08:07:26;;;;;;;;;;;22.10;70.80;;;;;;5055139;28;1636;-71
2021/06/22 08:09:52;;;;;;;;;;;22.10;70.90;;;;;;5054950;28;1659;-71
2021/06/22 08:12:17;;;;;;;;;;;22.10;70.90;;;;;;5055003;28;1383;-73
2021/06/22 08:14:42;;;;;;;;;;;22.10;70.90;;;;;;5054651;28;1614;-73
2021/06/22 08:17:08;;;;;;;;;;;22.10;70.90;;;;;;5055228;28;1331;-71
2021/06/22 08:19:33;;;;;;;;;;;22.10;70.90;;;;;;5053872;28;1789;-71
2021/06/22 08:21:59;;;;;;;;;;;22.10;70.90;;;;;;5054963;28;1527;-70
2021/06/22 08:24:25;;;;;;;;;;;22.10;70.90;;;;;;5052851;28;1894;-72
2021/06/22 08:26:50;;;;;;;;;;;22.10;70.90;;;;;;5054928;28;2045;-72
2021/06/22 08:29:16;;;;;;;;;;;22.10;70.90;;;;;;5065304;28;1364;-72
2021/06/22 08:31:41;;;;;;;;;;;22.10;70.90;;;;;;5069813;28;1613;-71
2021/06/22 08:34:07;;;;;;;;;;;22.10;70.90;;;;;;5054277;28;1429;-72
2021/06/22 08:36:32;;;;;;;;;;;22.10;70.90;;;;;;5049795;28;1512;-73
2021/06/22 08:38:57;;;;;;;;;;;22.10;70.90;;;;;;5065792;28;1549;-72
2021/06/22 08:41:23;;;;;;;;;;;22.10;70.80;;;;;;5049800;28;1705;-74
2021/06/22 08:43:49;;;;;;;;;;;22.10;70.80;;;;;;5059498;28;1890;-71
2021/06/22 08:46:14;;;;;;;;;;;22.10;70.90;;;;;;5051402;28;1890;-71
2021/06/22 08:48:40;;;;;;;;;;;22.10;70.90;;;;;;5051834;28;1688;-74
2021/06/22 08:51:05;;;;;;;;;;;22.10;70.80;;;;;;5051409;28;1517;-75
2021/06/22 08:53:31;;;;;;;;;;;22.10;70.80;;;;;;5052730;28;1346;-74
2021/06/22 08:55:56;;;;;;;;;;;22.10;70.80;;;;;;5054376;28;1115;-75
2021/06/22 08:58:21;;;;;;;;;;;22.10;71.50;;;;;;5030498;28;1181;-74
2021/06/22 09:00:47;;;;;;;;;;;22.10;70.80;;;;;;5047087;28;1398;-73
2021/06/22 09:03:14;;;;;;;;;;;22.10;70.80;;;;;;5053009;28;1454;-74
2021/06/22 09:05:40;;;;;;;;;;;22.10;70.80;;;;;;5052923;28;1910;-74
2021/06/22 09:08:05;;;;;;;;;;;22.10;70.70;;;;;;5053231;28;1053;-74
2021/06/22 09:10:34;;;;;;;;;;;22.10;70.70;;;;;;5052715;28;1451;-72
2021/06/22 09:13:09;;;;;;;;;;;22.10;70.70;;;;;;5053126;28;1388;-70
2021/06/22 09:15:36;;;;;;;;;;;22.10;70.80;;;;;;5052456;28;887;-72
2021/06/22 09:18:02;;;;;;;;;;;22.10;70.80;;;;;;5052276;28;895;-74
2021/06/22 09:20:37;;;;;;;;;;;22.10;70.90;;;;;;5053738;28;1364;-73
2021/06/22 09:23:24;;;;;;;;;;;22.10;70.80;;;;;;5067609;28;1371;-74
2021/06/22 09:25:49;;;;;;;;;;;22.10;70.80;;;;;;5044337;28;1902;-75
2021/06/22 09:28:15;;;;;;;;;;;22.10;70.70;;;;;;5046222;28;1258;-73
2021/06/22 09:30:43;;;;;;;;;;;22.10;70.70;;;;;;5051666;28;1552;-73
2021/06/22 09:33:13;;;;;;;;;;;22.10;70.70;;;;;;5046479;28;1303;-74
2021/06/22 09:35:39;;;;;;;;;;;22.10;70.70;;;;;;5045315;28;1288;-75
2021/06/22 09:38:04;;;;;;;;;;;22.10;70.70;;;;;;5048035;28;1297;-74
2021/06/22 09:40:29;;;;;;;;;;;22.10;70.70;;;;;;5041586;28;1470;-75
2021/06/22 09:42:56;;;;;;;;;;;22.10;70.70;;;;;;5032533;28;1838;-71
2021/06/22 09:45:21;;;;;;;;;;;22.10;70.80;;;;;;5045325;28;1902;-71
2021/06/22 09:47:47;;;;;;;;;;;22.10;70.70;;;;;;5048361;28;1471;-69
2021/06/22 09:50:31;;;;;;;;;;;22.10;70.70;;;;;;5050946;28;1241;-69
2021/06/22 09:53:16;;;;;;;;;;;22.10;70.70;;;;;;5044286;28;1595;-70
2021/06/22 09:55:41;;;;;;;;;;;22.10;70.80;;;;;;5043703;28;1152;-68
2021/06/22 09:58:07;;;;;;;;;;;22.10;70.70;;;;;;5042341;28;1259;-70
2021/06/22 10:00:36;;;;;;;;;;;22.10;70.80;;;;;;5045938;28;1278;-68
2021/06/22 10:03:01;;;;;;;;;;;22.10;70.80;;;;;;5043095;28;1419;-68
2021/06/22 10:05:27;;;;;;;;;;;22.10;70.80;;;;;;5045398;28;1935;-71
2021/06/22 10:07:59;;;;;;;;;;;22.10;70.80;;;;;;5050135;28;1620;-73
2021/06/22 10:10:33;;;;;;;;;;;22.10;70.80;;;;;;5048459;28;1080;-70
2021/06/22 10:12:59;;;;;;;;;;;22.10;71.50;;;;;;5050362;28;1647;-69
2021/06/22 10:15:24;;;;;;;;;;;22.10;70.80;;;;;;5050934;28;1520;-69
2021/06/22 10:17:50;;;;;;;;;;;22.10;70.80;;;;;;5052065;28;1051;-68
2021/06/22 10:20:16;;;;;;;;;;;22.10;70.80;;;;;;5049816;28;1205;-72
2021/06/22 10:22:43;;;;;;;;;;;22.10;70.80;;;;;;5049046;28;1317;-71
2021/06/22 10:25:10;;;;;;;;;;;22.10;70.80;;;;;;5051014;28;1981;-71
2021/06/22 10:27:35;;;;;;;;;;;22.10;70.80;;;;;;5030306;28;2104;-72
2021/06/22 10:30:02;;;;;;;;;;;22.10;70.80;;;;;;5064144;28;1513;-72
2021/06/22 10:32:28;;;;;;;;;;;22.10;70.80;;;;;;5067371;28;1704;-72
2021/06/22 10:34:54;;;;;;;;;;;22.10;70.80;;;;;;5051313;28;1753;-73
2021/06/22 10:37:32;;;;;;;;;;;22.10;70.80;;;;;;5049892;28;1927;-71
2021/06/22 10:40:05;;;;;;;;;;;22.10;70.80;;;;;;5056272;28;1528;-73
2021/06/22 10:42:43;;;;;;;;;;;22.10;70.80;;;;;;5060721;28;1376;-74
2021/06/22 10:45:09;;;;;;;;;;;22.10;70.80;;;;;;5034447;28;1973;-71
2021/06/22 10:47:35;;;;;;;;;;;22.10;70.80;;;;;;5051313;28;1178;-71
2021/06/22 10:50:02;;;;;;;;;;;22.10;70.80;;;;;;5051898;28;1363;-73
2021/06/22 10:52:57;;;;;;;;;;;22.10;70.80;;;;;;5050627;28;1603;-71
2021/06/22 10:56:02;;;;;;;;;;;22.10;70.80;;;;;;5037937;28;1492;-70
2021/06/22 10:58:21;;;;;;;;;;;22.10;70.70;;;;;;5048567;28;1661;-71
2021/06/22 11:00:49;;;;;;;;;;;22.10;70.70;;;;;;5051751;28;1212;-71
2021/06/22 11:03:32;;;;;;;;;;;22.10;70.70;;;;;;5050918;28;1245;-71
2021/06/22 11:06:23;;;;;;;;;;;22.10;70.70;;;;;;5051644;28;1910;-71
2021/06/22 11:08:49;;;;;;;;;;;22.10;70.70;;;;;;5048133;28;1441;-70
2021/06/22 11:11:15;;;;;;;;;;;22.10;70.70;;;;;;5051527;28;1706;-69
2021/06/22 11:13:44;;;;;;;;;;;22.10;70.70;;;;;;5050391;28;1376;-72
2021/06/22 11:16:12;;;;;;;;;;;22.10;70.70;;;;;;5051261;28;1226;-71
2021/06/22 11:18:58;;;;;;;;;;;22.10;70.70;;;;;;5052189;28;1161;-68
2021/06/22 11:21:47;;;;;;;;;;;22.10;70.70;;;;;;5045739;28;1436;-71
2021/06/22 11:24:16;;;;;;;;;;;22.10;70.70;;;;;;5051822;28;1968;-70
2021/06/22 11:26:45;;;;;;;;;;;22.10;70.70;;;;;;5050712;28;1455;-70
2021/06/22 11:29:11;;;;;;;;;;;22.10;70.70;;;;;;5052115;28;1204;-70
2021/06/22 11:31:46;;;;;;;;;;;22.10;70.70;;;;;;5052699;28;1451;-70
2021/06/22 11:34:12;;;;;;;;;;;22.10;70.70;;;;;;5047286;28;1136;-72
2021/06/22 11:36:39;;;;;;;;;;;22.10;70.70;;;;;;5041782;28;1352;-72
2021/06/22 11:39:04;;;;;;;;;;;22.10;70.70;;;;;;5047328;28;1228;-69
2021/06/22 11:41:29;;;;;;;;;;;22.10;70.70;;;;;;5045655;28;1369;-69
2021/06/22 11:44:07;;;;;;;;;;;22.10;70.70;;;;;;5051348;28;1248;-68
2021/06/22 11:46:33;;;;;;;;;;;22.10;70.70;;;;;;5054262;28;1606;-68
2021/06/22 11:48:59;;;;;;;;;;;22.10;70.70;;;;;;5054176;28;1190;-69
2021/06/22 11:51:43;;;;;;;;;;;22.10;70.70;;;;;;5054220;28;1489;-71
2021/06/22 11:54:09;;;;;;;;;;;22.10;70.70;;;;;;5055268;28;1381;-69
2021/06/22 11:56:34;;;;;;;;;;;22.10;70.70;;;;;;5055490;28;1384;-71
2021/06/22 11:59:00;;;;;;;;;;;22.10;70.70;;;;;;5053871;28;1550;-71
2021/06/22 12:01:25;;;;;;;;;;;22.10;70.70;;;;;;5055199;28;1488;-69
2021/06/22 12:03:54;;;;;;;;;;;22.10;70.80;;;;;;5055115;28;1410;-71
2021/06/22 12:06:23;;;;;;;;;;;22.10;70.80;;;;;;5054955;28;1910;-71
2021/06/22 12:08:48;;;;;;;;;;;22.10;70.70;;;;;;5055197;28;1415;-71
2021/06/22 12:11:26;;;;;;;;;;;22.10;70.70;;;;;;5054961;28;1423;-68
2021/06/22 12:13:53;;;;;;;;;;;22.10;70.80;;;;;;5053591;28;1308;-70
2021/06/22 12:16:25;;;;;;;;;;;22.10;70.80;;;;;;5053931;28;1514;-70
2021/06/22 12:18:51;;;;;;;;;;;22.10;70.80;;;;;;5053623;28;1174;-69
2021/06/22 12:21:17;;;;;;;;;;;22.10;70.80;;;;;;5053541;28;1344;-72
2021/06/22 12:23:42;;;;;;;;;;;22.10;70.80;;;;;;5053173;28;1271;-72
2021/06/22 12:26:08;;;;;;;;;;;22.10;70.70;;;;;;5053456;28;1897;-71
2021/06/22 12:28:34;;;;;;;;;;;22.10;70.80;;;;;;5053377;28;1363;-71
2021/06/22 12:31:01;;;;;;;;;;;22.10;70.80;;;;;;5053625;28;1213;-72
2021/06/22 12:33:30;;;;;;;;;;;22.10;70.80;;;;;;5052914;28;1245;-72
2021/06/22 12:35:59;;;;;;;;;;;22.10;70.80;;;;;;5053409;28;1459;-70
2021/06/22 12:38:25;;;;;;;;;;;22.10;70.80;;;;;;5054614;28;1534;-72
2021/06/22 12:40:53;;;;;;;;;;;22.10;70.80;;;;;;5033493;28;1418;-72
2021/06/22 12:43:19;;;;;;;;;;;22.10;70.80;;;;;;5061092;28;1636;-70
2021/06/22 12:45:59;;;;;;;;;;;22.10;70.90;;;;;;5054323;28;1961;-70
2021/06/22 12:48:24;;;;;;;;;;;22.10;70.90;;;;;;5054426;28;1219;-72
2021/06/22 12:50:50;;;;;;;;;;;22.10;71.00;;;;;;5054209;28;1448;-72
2021/06/22 12:53:15;;;;;;;;;;;22.10;71.10;;;;;;5052536;28;1631;-72
2021/06/22 12:55:48;;;;;;;;;;;22.10;71.10;;;;;;5053088;28;1452;-71
2021/06/22 12:58:14;;;;;;;;;;;22.10;71.20;;;;;;5054246;28;1414;-71
2021/06/22 13:00:46;;;;;;;;;;;22.10;71.30;;;;;;5054407;28;1443;-72
2021/06/22 13:03:11;;;;;;;;;;;22.10;71.40;;;;;;5052463;28;1681;-71
2021/06/22 13:05:38;;;;;;;;;;;22.10;71.50;;;;;;5054108;28;1966;-72
2021/06/22 13:08:04;;;;;;;;;;;22.10;71.50;;;;;;5053768;28;1106;-72
2021/06/22 13:10:29;;;;;;;;;;;22.10;71.60;;;;;;5052992;28;1678;-72
2021/06/22 13:12:55;;;;;;;;;;;22.10;71.60;;;;;;5053352;28;1289;-71
2021/06/22 13:15:30;;;;;;;;;;;22.10;71.80;;;;;;5052864;28;1613;-72
2021/06/22 13:17:55;;;;;;;;;;;22.10;71.90;;;;;;5053734;28;1633;-72
2021/06/22 13:20:22;;;;;;;;;;;22.10;72.00;;;;;;5050663;28;1694;-72
2021/06/22 13:22:48;;;;;;;;;;;22.10;72.00;;;;;;5049572;28;1499;-72
2021/06/22 13:25:15;;;;;;;;;;;22.10;72.00;;;;;;5052352;28;1910;-72
2021/06/22 13:27:42;;;;;;;;;;;22.10;71.90;;;;;;5053780;28;1877;-71
2021/06/22 13:30:11;;;;;;;;;;;22.20;71.90;;;;;;5053705;28;1158;-72
2021/06/22 13:32:43;;;;;;;;;;;22.10;71.80;;;;;;5035679;28;1533;-70
2021/06/22 13:35:09;;;;;;;;;;;22.10;71.70;;;;;;5053412;28;1195;-70
2021/06/22 13:37:34;;;;;;;;;;;22.10;71.60;;;;;;5047381;28;1596;-69
2021/06/22 13:40:01;;;;;;;;;;;22.10;71.60;;;;;;5048923;28;1527;-72
2021/06/22 13:42:30;;;;;;;;;;;22.10;71.60;;;;;;5050788;28;1219;-71
2021/06/22 13:45:05;;;;;;;;;;;22.10;71.60;;;;;;5050980;28;1894;-71
2021/06/22 13:47:32;;;;;;;;;;;22.10;71.50;;;;;;5052513;28;1466;-71
2021/06/22 13:49:59;;;;;;;;;;;22.10;71.50;;;;;;5054054;28;2007;-74
2021/06/22 13:52:24;;;;;;;;;;;22.10;71.50;;;;;;5056465;23;2324;-67
2021/06/22 13:54:53;;;;;;;;;;;22.10;71.50;;;;;;5026228;28;1957;-66
2021/06/22 13:57:18;;;;;;;;;;;22.10;71.50;;;;;;5022184;28;1505;-66
2021/06/22 13:59:44;;;;;;;;;;;22.10;71.50;;;;;;5026262;28;1653;-66
2021/06/22 14:02:09;;;;;;;;;;;22.10;71.50;;;;;;5032901;28;1400;-66
2021/06/22 14:04:35;;;;;;;;;;;22.10;71.50;;;;;;5030935;28;1906;-66
2021/06/22 14:07:00;;;;;;;;;;;22.10;71.50;;;;;;5032639;28;1295;-67
2021/06/22 14:09:26;;;;;;;;;;;22.10;71.50;;;;;;5023453;28;1891;-66
2021/06/22 14:11:54;;;;;;;;;;;22.10;71.50;;;;;;5030238;28;1356;-66
2021/06/22 14:14:20;;;;;;;;;;;22.10;71.50;;;;;;5020914;28;1978;-66
2021/06/22 14:16:45;;;;;;;;;;;22.10;71.50;;;;;;5026615;28;2202;-66
2021/06/22 14:19:10;;;;;;;;;;;22.10;71.40;;;;;;5022084;28;1392;-66
2021/06/22 14:21:36;;;;;;;;;;;22.10;71.50;;;;;;5029514;28;1446;-65
2021/06/22 14:24:02;;;;;;;;;;;22.10;71.40;;;;;;5029105;28;1467;-66
2021/06/22 14:26:27;;;;;;;;;;;22.10;71.40;;;;;;5030088;28;1906;-65
2021/06/22 14:28:53;;;;;;;;;;;22.10;71.50;;;;;;5030412;28;1332;-67
2021/06/22 14:31:18;;;;;;;;;;;22.10;71.40;;;;;;5031305;28;1622;-65